Time;durP1;ratioP1;P1;durP2;ratioP2;P2;SDS_P1;SDS_P2;PMS_P1;PMS_P2;Temp;Humidity;BMP_temperature;BMP_pressure;BME280_temperature;BME280_humidity;BME280_pressure;Samples;Min_cycle;Max_cycle;Signal;HPM_P1;HPM_P2
2023/09/02 00:01:14;;;;;;;4.07;1.98;;;;;;;;;;5039076;28;20033;-76
2023/09/02 00:04:03;;;;;;;5.22;2.00;;;;;;;;;;5020459;28;20109;-76
2023/09/02 00:06:48;;;;;;;4.50;2.05;;;;;;;;;;5038414;28;20041;-70
2023/09/02 00:09:33;;;;;;;7.88;2.65;;;;;;;;;;5010155;28;20026;-84
2023/09/02 00:12:18;;;;;;;10.50;2.70;;;;;;;;;;5010779;28;20030;-82
2023/09/02 00:15:04;;;;;;;4.25;1.77;;;;;;;;;;5034994;28;20036;-82
2023/09/02 00:17:49;;;;;;;6.20;1.88;;;;;;;;;;5016282;28;20188;-85
2023/09/02 00:20:34;;;;;;;4.07;1.85;;;;;;;;;;5003366;28;20034;-84
2023/09/02 00:23:20;;;;;;;3.13;1.80;;;;;;;;;;5010324;28;20132;-81
2023/09/02 00:26:05;;;;;;;2.13;1.48;;;;;;;;;;5011458;28;20105;-78
2023/09/02 00:28:50;;;;;;;8.98;2.35;;;;;;;;;;4995642;28;20179;-77
2023/09/02 00:31:35;;;;;;;8.77;2.00;;;;;;;;;;5007030;28;20083;-77
2023/09/02 00:34:20;;;;;;;6.80;2.00;;;;;;;;;;5008133;28;20030;-77
2023/09/02 00:37:06;;;;;;;2.60;1.60;;;;;;;;;;5014426;28;20183;-77
2023/09/02 00:39:51;;;;;;;5.43;2.30;;;;;;;;;;5007969;28;20057;-78
2023/09/02 00:42:36;;;;;;;3.83;2.33;;;;;;;;;;5009716;28;20076;-78
2023/09/02 00:45:22;;;;;;;5.10;2.38;;;;;;;;;;5009156;28;20095;-77
2023/09/02 00:48:08;;;;;;;7.15;2.20;;;;;;;;;;5006457;28;20195;-67
2023/09/02 00:50:53;;;;;;;3.97;1.70;;;;;;;;;;5032304;28;20040;-68
2023/09/02 00:53:38;;;;;;;3.60;1.90;;;;;;;;;;5008191;28;20056;-68
2023/09/02 00:56:27;;;;;;;5.68;2.53;;;;;;;;;;5040534;28;20105;-68
2023/09/02 00:59:12;;;;;;;6.40;2.30;;;;;;;;;;5010238;28;20116;-70
2023/09/02 01:01:58;;;;;;;2.67;1.70;;;;;;;;;;5009719;28;20077;-77
2023/09/02 01:04:44;;;;;;;3.92;1.70;;;;;;;;;;5005368;28;20614;-68
2023/09/02 01:07:31;;;;;;;2.75;1.75;;;;;;;;;;5014550;28;20782;-67
2023/09/02 01:10:17;;;;;;;5.07;1.80;;;;;;;;;;5004731;28;20037;-68
2023/09/02 01:13:03;;;;;;;2.70;1.85;;;;;;;;;;5011646;28;20266;-68
2023/09/02 01:15:48;;;;;;;3.20;1.92;;;;;;;;;;5013134;28;20033;-67
2023/09/02 01:18:35;;;;;;;7.15;2.33;;;;;;;;;;5007189;28;20106;-67
2023/09/02 01:21:22;;;;;;;4.47;1.75;;;;;;;;;;5015449;28;20099;-69
2023/09/02 01:24:16;;;;;;;5.32;2.10;;;;;;;;;;5006050;28;20455;-67
2023/09/02 01:27:16;;;;;;;5.63;2.13;;;;;;;;;;5009170;28;20032;-66
2023/09/02 01:30:05;;;;;;;8.05;2.30;;;;;;;;;;5034398;28;20041;-67
2023/09/02 01:32:51;;;;;;;6.45;2.30;;;;;;;;;;5024897;28;20080;-67
2023/09/02 01:35:37;;;;;;;4.90;2.25;;;;;;;;;;5020013;28;20037;-66
2023/09/02 01:38:24;;;;;;;5.30;2.00;;;;;;;;;;5011295;28;20026;-67
2023/09/02 01:41:10;;;;;;;5.50;1.90;;;;;;;;;;5008474;28;20128;-74
2023/09/02 01:43:56;;;;;;;2.58;1.75;;;;;;;;;;5018466;28;20018;-76
2023/09/02 01:46:41;;;;;;;2.60;1.42;;;;;;;;;;5007853;28;20042;-75
2023/09/02 01:49:27;;;;;;;2.40;1.77;;;;;;;;;;5013607;28;20025;-75
2023/09/02 01:52:14;;;;;;;5.97;2.03;;;;;;;;;;5026731;28;20366;-77
2023/09/02 01:54:59;;;;;;;4.07;1.98;;;;;;;;;;5032360;28;20751;-76
2023/09/02 01:57:44;;;;;;;4.20;2.03;;;;;;;;;;5010070;28;20542;-69
2023/09/02 02:00:30;;;;;;;2.65;1.70;;;;;;;;;;5009025;28;20060;-84
2023/09/02 02:03:19;;;;;;;4.85;1.73;;;;;;;;;;5035939;28;20075;-83
2023/09/02 02:06:06;;;;;;;4.30;1.83;;;;;;;;;;5008664;28;20028;-82
2023/09/02 02:08:55;;;;;;;7.50;1.88;;;;;;;;;;5043658;28;20054;-83
2023/09/02 02:11:41;;;;;;;6.63;2.03;;;;;;;;;;5011597;28;20068;-82
2023/09/02 02:14:30;;;;;;;3.28;1.75;;;;;;;;;;5010300;28;20421;-81
2023/09/02 02:17:15;;;;;;;7.47;1.92;;;;;;;;;;5009238;28;20042;-70
2023/09/02 02:20:00;;;;;;;3.42;1.77;;;;;;;;;;5009378;28;20503;-75
2023/09/02 02:22:45;;;;;;;4.93;1.88;;;;;;;;;;5006227;28;20026;-79
2023/09/02 02:25:31;;;;;;;4.78;1.88;;;;;;;;;;5030279;28;20030;-77
2023/09/02 02:28:17;;;;;;;2.78;1.55;;;;;;;;;;5008923;28;20030;-74
2023/09/02 02:31:02;;;;;;;5.05;2.88;;;;;;;;;;5010348;28;20040;-74
2023/09/02 02:33:48;;;;;;;8.02;2.33;;;;;;;;;;5007569;28;20021;-85
2023/09/02 02:36:33;;;;;;;2.40;1.45;;;;;;;;;;5022832;28;20121;-70
2023/09/02 02:39:18;;;;;;;4.18;2.00;;;;;;;;;;5013960;28;20036;-68
2023/09/02 02:42:03;;;;;;;4.00;1.60;;;;;;;;;;5008365;28;20036;-68
2023/09/02 02:44:49;;;;;;;2.85;2.00;;;;;;;;;;5009696;28;20187;-69
2023/09/02 02:47:34;;;;;;;5.65;2.42;;;;;;;;;;5037658;28;20029;-68
2023/09/02 02:50:19;;;;;;;4.32;1.90;;;;;;;;;;5006779;28;20026;-68
2023/09/02 02:53:05;;;;;;;6.30;1.90;;;;;;;;;;5015010;28;20037;-75
2023/09/02 02:55:51;;;;;;;3.50;2.20;;;;;;;;;;4993089;28;20121;-68
2023/09/02 02:58:36;;;;;;;8.98;2.85;;;;;;;;;;5008228;28;20053;-67
2023/09/02 03:01:21;;;;;;;3.63;1.70;;;;;;;;;;5010228;28;20037;-68
2023/09/02 03:04:08;;;;;;;4.10;1.88;;;;;;;;;;5027743;28;20409;-70
2023/09/02 03:06:53;;;;;;;3.42;2.13;;;;;;;;;;5013508;28;20028;-68
2023/09/02 03:09:38;;;;;;;6.82;2.03;;;;;;;;;;5008653;28;20575;-70
2023/09/02 03:12:24;;;;;;;4.20;1.92;;;;;;;;;;5005899;28;20021;-70
2023/09/02 03:15:09;;;;;;;6.10;2.15;;;;;;;;;;5008237;28;20078;-70
2023/09/02 03:17:54;;;;;;;6.63;2.63;;;;;;;;;;5029386;28;20042;-69
2023/09/02 03:20:39;;;;;;;4.05;2.10;;;;;;;;;;5031834;28;20026;-68
2023/09/02 03:23:25;;;;;;;4.40;2.67;;;;;;;;;;5025657;28;20029;-69
2023/09/02 03:26:11;;;;;;;3.55;1.88;;;;;;;;;;5007994;28;20041;-69
2023/09/02 03:28:56;;;;;;;4.70;1.50;;;;;;;;;;5019486;28;20051;-83
2023/09/02 03:31:42;;;;;;;6.22;2.53;;;;;;;;;;5008552;28;20125;-69
2023/09/02 03:34:27;;;;;;;3.47;1.92;;;;;;;;;;5009588;28;20645;-67
2023/09/02 03:37:12;;;;;;;7.05;2.13;;;;;;;;;;5012129;28;20107;-68
2023/09/02 03:39:57;;;;;;;5.70;2.08;;;;;;;;;;5008303;28;20113;-68
2023/09/02 03:42:42;;;;;;;2.85;1.67;;;;;;;;;;5019756;28;20035;-68
2023/09/02 03:45:28;;;;;;;3.60;2.00;;;;;;;;;;5008561;28;20045;-68
2023/09/02 03:48:13;;;;;;;2.08;1.60;;;;;;;;;;5005873;28;20535;-69
2023/09/02 03:51:16;;;;;;;4.03;1.92;;;;;;;;;;5020039;28;20021;-74
2023/09/02 03:54:03;;;;;;;5.43;2.00;;;;;;;;;;5024515;28;20111;-77
2023/09/02 03:56:49;;;;;;;4.20;2.15;;;;;;;;;;5033451;28;20054;-76
2023/09/02 03:59:34;;;;;;;6.78;1.90;;;;;;;;;;5025187;28;20623;-75
2023/09/02 04:02:19;;;;;;;5.53;1.63;;;;;;;;;;5006485;28;20037;-75
2023/09/02 04:05:05;;;;;;;9.05;2.08;;;;;;;;;;5011423;28;20083;-75
2023/09/02 04:07:50;;;;;;;4.50;2.17;;;;;;;;;;5035586;28;20124;-72
2023/09/02 04:10:35;;;;;;;6.82;2.60;;;;;;;;;;5010157;28;20105;-69
2023/09/02 04:13:24;;;;;;;2.85;1.48;;;;;;;;;;5001856;28;20071;-69
2023/09/02 04:16:10;;;;;;;5.00;1.92;;;;;;;;;;5033605;28;20496;-67
2023/09/02 04:18:56;;;;;;;4.90;1.83;;;;;;;;;;5006326;28;20129;-66
2023/09/02 04:21:41;;;;;;;6.55;1.80;;;;;;;;;;5017519;28;20030;-66
2023/09/02 04:24:27;;;;;;;3.70;1.90;;;;;;;;;;5008635;28;20025;-66
2023/09/02 04:27:12;;;;;;;3.38;2.00;;;;;;;;;;5029223;28;20451;-84
2023/09/02 04:29:57;;;;;;;7.47;1.83;;;;;;;;;;5006515;28;20022;-84
2023/09/02 04:32:45;;;;;;;4.57;2.20;;;;;;;;;;5031681;28;20045;-83
2023/09/02 04:35:37;;;;;;;4.95;2.17;;;;;;;;;;5004832;28;20088;-83
2023/09/02 04:38:22;;;;;;;2.63;1.90;;;;;;;;;;5031209;28;20032;-82
2023/09/02 04:41:08;;;;;;;7.28;1.45;;;;;;;;;;5008287;28;20049;-81
2023/09/02 04:43:53;;;;;;;6.00;2.00;;;;;;;;;;5011213;28;20108;-68
2023/09/02 04:46:38;;;;;;;3.17;1.60;;;;;;;;;;5005270;28;20148;-68
2023/09/02 04:49:24;;;;;;;2.97;1.90;;;;;;;;;;5014215;28;20488;-66
2023/09/02 04:52:10;;;;;;;3.95;1.85;;;;;;;;;;4999222;28;20038;-67
2023/09/02 04:54:55;;;;;;;3.95;1.73;;;;;;;;;;5008239;28;20053;-66
2023/09/02 04:57:40;;;;;;;4.50;1.92;;;;;;;;;;5011811;28;20516;-67
2023/09/02 05:00:26;;;;;;;6.85;1.63;;;;;;;;;;5000116;28;20025;-70
2023/09/02 05:03:11;;;;;;;3.03;1.85;;;;;;;;;;5016827;28;20578;-74
2023/09/02 05:05:57;;;;;;;3.80;1.98;;;;;;;;;;5009526;28;20037;-82
2023/09/02 05:08:42;;;;;;;7.53;2.42;;;;;;;;;;5029718;28;20050;-83
2023/09/02 05:11:27;;;;;;;4.15;2.10;;;;;;;;;;5007176;28;20022;-83
2023/09/02 05:14:12;;;;;;;3.08;1.90;;;;;;;;;;5037353;28;20049;-83
2023/09/02 05:16:58;;;;;;;4.38;2.38;;;;;;;;;;5012586;28;20040;-81
2023/09/02 05:19:44;;;;;;;5.18;2.10;;;;;;;;;;5010417;28;20034;-66
2023/09/02 05:22:29;;;;;;;6.40;2.38;;;;;;;;;;5033575;28;20029;-67
2023/09/02 05:25:14;;;;;;;4.25;1.83;;;;;;;;;;5005392;28;20041;-70
2023/09/02 05:28:00;;;;;;;7.55;2.20;;;;;;;;;;5037451;28;20029;-68
2023/09/02 05:30:45;;;;;;;6.88;2.47;;;;;;;;;;5036848;28;20063;-69
2023/09/02 05:33:30;;;;;;;5.93;2.47;;;;;;;;;;5008778;28;20022;-69
2023/09/02 05:36:15;;;;;;;6.88;2.25;;;;;;;;;;5009446;28;20030;-69
2023/09/02 05:39:00;;;;;;;7.43;2.42;;;;;;;;;;5010268;28;20029;-70
2023/09/02 05:41:46;;;;;;;3.72;2.00;;;;;;;;;;5028685;28;20262;-70
2023/09/02 05:44:34;;;;;;;3.42;2.00;;;;;;;;;;5009369;28;20041;-68
2023/09/02 05:47:19;;;;;;;6.70;2.40;;;;;;;;;;5003035;28;20389;-69
2023/09/02 05:50:05;;;;;;;5.38;2.13;;;;;;;;;;5026879;28;20058;-68
2023/09/02 05:52:50;;;;;;;6.15;2.63;;;;;;;;;;5013688;28;20091;-69
2023/09/02 05:55:35;;;;;;;3.60;2.33;;;;;;;;;;5009450;28;20095;-67
2023/09/02 05:58:22;;;;;;;4.22;1.73;;;;;;;;;;5009285;28;20076;-67
2023/09/02 06:01:07;;;;;;;4.88;2.55;;;;;;;;;;5002683;28;20083;-70
2023/09/02 06:03:52;;;;;;;6.80;2.40;;;;;;;;;;5001238;28;20088;-70
2023/09/02 06:06:37;;;;;;;4.88;2.40;;;;;;;;;;5017805;28;20034;-72
2023/09/02 06:09:26;;;;;;;4.60;2.33;;;;;;;;;;5026989;28;20028;-65
2023/09/02 06:12:11;;;;;;;4.15;2.08;;;;;;;;;;5003269;28;20037;-74
2023/09/02 06:14:56;;;;;;;6.43;2.33;;;;;;;;;;4998210;28;20026;-68
2023/09/02 06:17:42;;;;;;;8.40;2.92;;;;;;;;;;5002821;28;20034;-72
2023/09/02 06:20:27;;;;;;;4.50;2.55;;;;;;;;;;5018732;28;20030;-68
2023/09/02 06:23:12;;;;;;;7.22;2.80;;;;;;;;;;5004815;28;20551;-69
2023/09/02 06:25:58;;;;;;;5.03;2.72;;;;;;;;;;5010782;28;20026;-73
2023/09/02 06:28:43;;;;;;;9.93;2.90;;;;;;;;;;5003262;28;20044;-73
2023/09/02 06:31:28;;;;;;;7.75;2.72;;;;;;;;;;4998887;28;20662;-73
2023/09/02 06:34:14;;;;;;;6.63;2.72;;;;;;;;;;5014953;28;20076;-78
2023/09/02 06:36:59;;;;;;;6.32;2.55;;;;;;;;;;5005925;28;20073;-78
2023/09/02 06:39:44;;;;;;;4.50;2.53;;;;;;;;;;5023266;28;20113;-79
2023/09/02 06:42:29;;;;;;;4.93;2.47;;;;;;;;;;5003663;28;20022;-77
2023/09/02 06:45:14;;;;;;;18.10;4.07;;;;;;;;;;5005930;28;20741;-79
2023/09/02 06:48:00;;;;;;;10.27;2.92;;;;;;;;;;5004165;28;20385;-78
2023/09/02 06:50:46;;;;;;;6.78;2.97;;;;;;;;;;5000150;28;20073;-81
2023/09/02 06:53:31;;;;;;;5.53;3.17;;;;;;;;;;5002218;28;20050;-75
2023/09/02 06:56:17;;;;;;;6.55;2.20;;;;;;;;;;5018159;28;20038;-67
2023/09/02 06:59:02;;;;;;;4.63;2.22;;;;;;;;;;5016351;28;20037;-68
2023/09/02 07:01:48;;;;;;;5.47;2.67;;;;;;;;;;5013296;28;20074;-68
2023/09/02 07:04:33;;;;;;;7.22;2.83;;;;;;;;;;5017150;28;20061;-69
2023/09/02 07:07:18;;;;;;;6.97;3.05;;;;;;;;;;5011525;28;20120;-67
2023/09/02 07:10:04;;;;;;;3.80;2.33;;;;;;;;;;5022410;28;20018;-76
2023/09/02 07:12:52;;;;;;;7.75;2.47;;;;;;;;;;5013109;28;20029;-68
2023/09/02 07:15:37;;;;;;;5.55;2.40;;;;;;;;;;5004804;28;20061;-66
2023/09/02 07:18:22;;;;;;;4.03;2.15;;;;;;;;;;4994007;28;20109;-70
2023/09/02 07:21:08;;;;;;;6.72;2.70;;;;;;;;;;5006507;28;20566;-70
2023/09/02 07:23:53;;;;;;;4.25;2.40;;;;;;;;;;5029555;28;20065;-68
2023/09/02 07:26:38;;;;;;;5.03;2.38;;;;;;;;;;5013732;28;20038;-67
2023/09/02 07:29:23;;;;;;;2.28;1.70;;;;;;;;;;5016479;28;20482;-68
2023/09/02 07:32:09;;;;;;;6.70;1.95;;;;;;;;;;5022067;28;20065;-67
2023/09/02 07:34:54;;;;;;;8.35;2.47;;;;;;;;;;5003672;28;20043;-66
2023/09/02 07:37:39;;;;;;;5.95;2.45;;;;;;;;;;5001558;28;21779;-65
2023/09/02 07:40:24;;;;;;;4.30;2.10;;;;;;;;;;5007345;28;20123;-66
2023/09/02 07:43:09;;;;;;;2.90;2.33;;;;;;;;;;5029552;28;20088;-67
2023/09/02 07:45:55;;;;;;;5.43;2.50;;;;;;;;;;5009122;28;20515;-65
2023/09/02 07:48:41;;;;;;;3.65;2.22;;;;;;;;;;5004306;28;20132;-75
2023/09/02 07:51:26;;;;;;;5.10;2.10;;;;;;;;;;5006759;28;20044;-64
2023/09/02 07:54:13;;;;;;;5.45;2.20;;;;;;;;;;5018935;28;20049;-75
2023/09/02 07:56:58;;;;;;;6.85;2.60;;;;;;;;;;5026212;28;20323;-71
2023/09/02 07:59:43;;;;;;;3.72;2.13;;;;;;;;;;5009691;28;20029;-72
2023/09/02 08:02:28;;;;;;;2.78;1.85;;;;;;;;;;5005820;28;20083;-69
2023/09/02 08:05:13;;;;;;;2.42;1.90;;;;;;;;;;5006191;28;20077;-65
2023/09/02 08:07:59;;;;;;;2.42;1.70;;;;;;;;;;5012758;28;20033;-73
2023/09/02 08:10:44;;;;;;;4.78;2.22;;;;;;;;;;5007619;28;20507;-72
2023/09/02 08:13:29;;;;;;;3.88;1.80;;;;;;;;;;5002436;28;20022;-76
2023/09/02 08:16:15;;;;;;;8.07;1.83;;;;;;;;;;5003605;28;20034;-76
2023/09/02 08:19:00;;;;;;;4.63;2.10;;;;;;;;;;5003114;28;20038;-74
2023/09/02 08:21:45;;;;;;;4.75;2.20;;;;;;;;;;5030739;28;21376;-74
2023/09/02 08:24:30;;;;;;;2.78;1.70;;;;;;;;;;5026520;28;20021;-70
2023/09/02 08:27:16;;;;;;;5.43;2.03;;;;;;;;;;4997933;28;20026;-68
2023/09/02 08:30:02;;;;;;;2.80;1.70;;;;;;;;;;5033701;28;20030;-67
2023/09/02 08:32:47;;;;;;;4.63;2.05;;;;;;;;;;5029745;28;20550;-68
2023/09/02 08:35:36;;;;;;;3.33;1.83;;;;;;;;;;5004768;28;20037;-68
2023/09/02 08:38:21;;;;;;;3.67;2.05;;;;;;;;;;5006824;28;20512;-67
2023/09/02 08:41:06;;;;;;;4.20;1.85;;;;;;;;;;5005559;28;20029;-68
2023/09/02 08:43:55;;;;;;;2.85;1.92;;;;;;;;;;5002133;28;20157;-68
2023/09/02 08:46:40;;;;;;;4.07;1.90;;;;;;;;;;5004858;28;20026;-71
2023/09/02 08:49:27;;;;;;;3.17;2.00;;;;;;;;;;5013142;28;20029;-68
2023/09/02 08:52:13;;;;;;;2.00;1.60;;;;;;;;;;5003350;28;20049;-70
2023/09/02 08:54:58;;;;;;;4.07;1.80;;;;;;;;;;5008542;28;20077;-69
2023/09/02 08:57:44;;;;;;;3.47;1.70;;;;;;;;;;5020914;28;20030;-68
2023/09/02 09:00:30;;;;;;;3.47;2.15;;;;;;;;;;5019625;28;20033;-68
2023/09/02 09:03:16;;;;;;;7.22;2.00;;;;;;;;;;5013149;28;20049;-69
2023/09/02 09:06:03;;;;;;;2.15;1.77;;;;;;;;;;5010957;28;20037;-70
2023/09/02 09:08:49;;;;;;;3.28;1.92;;;;;;;;;;5009137;28;20042;-70
2023/09/02 09:11:36;;;;;;;3.55;1.88;;;;;;;;;;5015118;28;20518;-71
2023/09/02 09:14:24;;;;;;;2.50;1.88;;;;;;;;;;5043258;28;20034;-71
2023/09/02 09:17:10;;;;;;;4.00;1.60;;;;;;;;;;5042981;28;20045;-71
2023/09/02 09:19:56;;;;;;;1.52;1.23;;;;;;;;;;5022057;28;20053;-74
2023/09/02 09:22:42;;;;;;;4.13;2.13;;;;;;;;;;5012576;28;20038;-66
2023/09/02 09:25:27;;;;;;;4.35;1.90;;;;;;;;;;5011751;28;20117;-63
2023/09/02 09:28:12;;;;;;;2.83;1.60;;;;;;;;;;5006068;28;20394;-66
2023/09/02 09:30:58;;;;;;;2.65;1.80;;;;;;;;;;5001153;28;20035;-69
2023/09/02 09:33:50;;;;;;;3.78;2.00;;;;;;;;;;5013215;28;20033;-69
2023/09/02 09:36:36;;;;;;;4.55;2.00;;;;;;;;;;5030467;28;20052;-67
2023/09/02 09:39:36;;;;;;;6.50;2.25;;;;;;;;;;5009519;28;20552;-70
2023/09/02 09:42:32;;;;;;;2.78;1.80;;;;;;;;;;5006431;28;20080;-65
2023/09/02 09:45:18;;;;;;;4.22;1.80;;;;;;;;;;5005449;28;20038;-66
2023/09/02 09:48:09;;;;;;;3.08;2.00;;;;;;;;;;5003657;28;20224;-64
2023/09/02 09:50:55;;;;;;;4.05;2.33;;;;;;;;;;5012671;28;20030;-66
2023/09/02 09:53:46;;;;;;;4.90;1.90;;;;;;;;;;5005451;28;20034;-65
2023/09/02 09:56:32;;;;;;;5.35;1.63;;;;;;;;;;5006914;28;20193;-69
2023/09/02 09:59:17;;;;;;;3.63;1.80;;;;;;;;;;5015080;28;20022;-68
2023/09/02 10:02:04;;;;;;;4.38;1.80;;;;;;;;;;5001929;28;20034;-68
2023/09/02 10:04:56;;;;;;;2.00;1.60;;;;;;;;;;4996921;28;20041;-70
2023/09/02 10:07:41;;;;;;;3.90;1.88;;;;;;;;;;5004149;28;20036;-68
2023/09/02 10:10:40;;;;;;;4.05;1.80;;;;;;;;;;5002628;28;20531;-69
2023/09/02 10:13:26;;;;;;;3.67;1.77;;;;;;;;;;5024129;28;20033;-69
2023/09/02 10:16:13;;;;;;;4.30;1.65;;;;;;;;;;5002118;28;20148;-73
2023/09/02 10:18:58;;;;;;;2.95;1.67;;;;;;;;;;5028397;28;20388;-74
2023/09/02 10:21:44;;;;;;;9.20;2.17;;;;;;;;;;5002526;28;20221;-69
2023/09/02 10:24:33;;;;;;;4.25;1.95;;;;;;;;;;5027629;28;20030;-70
2023/09/02 10:27:23;;;;;;;2.75;1.60;;;;;;;;;;4999534;28;20034;-72
2023/09/02 10:30:17;;;;;;;1.90;1.42;;;;;;;;;;4996392;28;20057;-71
2023/09/02 10:33:10;;;;;;;3.13;1.65;;;;;;;;;;5000762;28;20042;-73
2023/09/02 10:36:00;;;;;;;3.10;1.35;;;;;;;;;;4996018;28;20050;-71
2023/09/02 10:38:47;;;;;;;2.80;1.85;;;;;;;;;;5030475;28;20034;-75
2023/09/02 10:41:33;;;;;;;3.45;1.40;;;;;;;;;;5023424;28;20037;-74
2023/09/02 10:44:20;;;;;;;2.50;1.50;;;;;;;;;;5006923;28;20022;-74
2023/09/02 10:47:05;;;;;;;3.63;1.70;;;;;;;;;;5019562;28;22043;-74
2023/09/02 10:49:50;;;;;;;2.47;1.60;;;;;;;;;;5029505;28;20033;-74
2023/09/02 10:52:36;;;;;;;2.75;1.70;;;;;;;;;;5016560;28;20116;-74
2023/09/02 10:55:21;;;;;;;2.28;1.48;;;;;;;;;;5028863;28;20048;-74
2023/09/02 10:58:06;;;;;;;2.70;1.50;;;;;;;;;;5027445;28;20140;-74
2023/09/02 11:00:52;;;;;;;2.15;1.45;;;;;;;;;;5000712;28;20042;-77
2023/09/02 11:03:45;;;;;;;5.47;1.75;;;;;;;;;;5003878;28;20116;-75
2023/09/02 11:06:30;;;;;;;1.88;1.52;;;;;;;;;;5027059;28;20025;-75
2023/09/02 11:09:36;;;;;;;3.33;1.77;;;;;;;;;;5009007;28;20033;-66
2023/09/02 11:12:21;;;;;;;6.30;1.85;;;;;;;;;;4988812;28;20026;-71
2023/09/02 11:15:06;;;;;;;2.85;1.77;;;;;;;;;;4993295;28;20541;-72
2023/09/02 11:17:52;;;;;;;2.72;1.50;;;;;;;;;;5002723;28;20077;-73
2023/09/02 11:20:57;;;;;;;3.13;1.88;;;;;;;;;;5012117;28;20116;-71
2023/09/02 11:23:42;;;;;;;5.88;2.13;;;;;;;;;;4995331;28;20089;-72
2023/09/02 11:26:28;;;;;;;1.48;1.30;;;;;;;;;;5036302;28;20025;-70
2023/09/02 11:29:22;;;;;;;2.15;1.35;;;;;;;;;;5035061;28;20073;-67
2023/09/02 11:32:07;;;;;;;2.90;1.65;;;;;;;;;;5008178;28;20339;-69
2023/09/02 11:34:53;;;;;;;3.58;1.48;;;;;;;;;;5006206;28;20118;-68
2023/09/02 11:37:38;;;;;;;1.77;1.30;;;;;;;;;;5028346;28;20049;-68
2023/09/02 11:40:25;;;;;;;2.63;1.73;;;;;;;;;;5007103;28;20033;-68
2023/09/02 11:43:16;;;;;;;2.53;1.73;;;;;;;;;;5006089;28;20122;-68
2023/09/02 11:46:02;;;;;;;2.97;1.65;;;;;;;;;;5026900;28;20042;-68
2023/09/02 11:48:47;;;;;;;2.88;1.60;;;;;;;;;;5001516;28;20034;-71
2023/09/02 11:51:32;;;;;;;4.60;2.20;;;;;;;;;;5006372;28;20044;-68
2023/09/02 11:54:18;;;;;;;6.80;2.13;;;;;;;;;;5017408;28;20513;-71
2023/09/02 11:57:03;;;;;;;4.53;2.20;;;;;;;;;;5005741;28;20093;-69
2023/09/02 11:59:48;;;;;;;2.50;1.48;;;;;;;;;;5032977;28;20409;-69
2023/09/02 12:02:34;;;;;;;4.40;1.90;;;;;;;;;;5026107;28;20045;-71
2023/09/02 12:05:19;;;;;;;2.53;1.67;;;;;;;;;;5028761;28;20084;-69
2023/09/02 12:08:04;;;;;;;3.58;1.98;;;;;;;;;;4987062;28;20482;-73
2023/09/02 12:10:49;;;;;;;3.60;2.03;;;;;;;;;;4998766;28;20129;-72
2023/09/02 12:13:35;;;;;;;3.63;1.80;;;;;;;;;;5015176;28;20069;-74
2023/09/02 12:16:22;;;;;;;2.80;1.83;;;;;;;;;;5007530;28;20038;-72
2023/09/02 12:19:07;;;;;;;2.90;1.35;;;;;;;;;;5019438;28;20034;-71
2023/09/02 12:21:53;;;;;;;2.05;1.52;;;;;;;;;;5034304;28;20511;-73
2023/09/02 12:24:39;;;;;;;1.83;1.35;;;;;;;;;;5024145;28;20101;-72
2023/09/02 12:27:24;;;;;;;3.70;1.85;;;;;;;;;;5002017;28;20367;-75
2023/09/02 12:30:10;;;;;;;5.32;1.30;;;;;;;;;;5006077;28;20033;-73
2023/09/02 12:32:57;;;;;;;2.05;1.42;;;;;;;;;;5005847;28;20116;-75
2023/09/02 12:35:49;;;;;;;2.65;1.52;;;;;;;;;;5000740;28;20034;-75
2023/09/02 12:38:50;;;;;;;3.85;1.85;;;;;;;;;;4993903;28;20251;-73
2023/09/02 12:41:36;;;;;;;3.65;1.80;;;;;;;;;;5032584;28;20040;-68
2023/09/02 12:44:22;;;;;;;3.58;1.90;;;;;;;;;;5004515;28;20042;-70
2023/09/02 12:47:08;;;;;;;3.00;1.30;;;;;;;;;;5007573;28;20091;-68
2023/09/02 12:49:55;;;;;;;3.60;2.13;;;;;;;;;;4993471;28;20084;-69
2023/09/02 12:52:40;;;;;;;3.08;1.73;;;;;;;;;;5020453;28;20117;-69
2023/09/02 12:55:25;;;;;;;4.05;1.98;;;;;;;;;;4995533;28;20413;-71
2023/09/02 12:58:11;;;;;;;2.67;1.88;;;;;;;;;;4995503;28;20037;-70
2023/09/02 13:00:59;;;;;;;3.55;2.00;;;;;;;;;;5001096;28;20026;-69
2023/09/02 13:03:45;;;;;;;3.60;2.17;;;;;;;;;;5029804;28;20034;-72
2023/09/02 13:06:30;;;;;;;3.13;1.77;;;;;;;;;;5036710;28;20029;-73
2023/09/02 13:09:15;;;;;;;3.17;1.88;;;;;;;;;;5007364;28;20025;-71
2023/09/02 13:12:01;;;;;;;4.72;2.00;;;;;;;;;;5008202;28;20034;-72
2023/09/02 13:14:47;;;;;;;4.05;1.85;;;;;;;;;;5025278;28;20522;-71
2023/09/02 13:17:33;;;;;;;2.55;1.60;;;;;;;;;;5005618;28;20430;-71
2023/09/02 13:20:19;;;;;;;2.70;1.80;;;;;;;;;;5017241;28;20057;-73
2023/09/02 13:23:04;;;;;;;2.83;1.85;;;;;;;;;;5010749;28;20034;-71
2023/09/02 13:25:49;;;;;;;3.75;2.08;;;;;;;;;;5029970;28;20030;-72
2023/09/02 13:28:36;;;;;;;4.03;1.77;;;;;;;;;;5033794;28;20034;-71
2023/09/02 13:31:22;;;;;;;3.53;2.03;;;;;;;;;;5015640;28;20042;-72
2023/09/02 13:34:07;;;;;;;3.58;2.05;;;;;;;;;;5035250;28;20689;-72
2023/09/02 13:36:55;;;;;;;5.88;1.77;;;;;;;;;;5000849;28;20521;-73
2023/09/02 13:39:41;;;;;;;2.55;2.00;;;;;;;;;;5006905;28;20406;-73
2023/09/02 13:42:27;;;;;;;3.30;1.70;;;;;;;;;;5003425;28;20065;-73
2023/09/02 13:45:24;;;;;;;2.95;2.00;;;;;;;;;;5006472;28;20045;-72
2023/09/02 13:48:11;;;;;;;4.72;2.20;;;;;;;;;;4998202;28;20060;-72
2023/09/02 13:50:59;;;;;;;3.50;1.65;;;;;;;;;;5009024;28;20029;-72
2023/09/02 13:53:44;;;;;;;4.40;2.20;;;;;;;;;;4998968;28;20062;-73
2023/09/02 13:56:29;;;;;;;3.70;1.98;;;;;;;;;;5008971;28;20092;-68
2023/09/02 13:59:14;;;;;;;3.20;1.70;;;;;;;;;;5008511;28;20108;-69
2023/09/02 14:02:01;;;;;;;5.00;1.77;;;;;;;;;;5008133;28;20037;-69
2023/09/02 14:04:49;;;;;;;2.63;2.10;;;;;;;;;;4998916;28;20037;-69
2023/09/02 14:07:34;;;;;;;3.90;1.80;;;;;;;;;;5010905;28;20524;-70
2023/09/02 14:10:19;;;;;;;3.53;1.80;;;;;;;;;;5003967;28;20034;-69
2023/09/02 14:13:08;;;;;;;2.55;1.85;;;;;;;;;;4992575;28;20030;-73
2023/09/02 14:15:53;;;;;;;6.32;1.73;;;;;;;;;;5004763;28;20276;-69
2023/09/02 14:18:38;;;;;;;2.00;1.52;;;;;;;;;;5003277;28;20033;-67
2023/09/02 14:21:24;;;;;;;4.88;2.17;;;;;;;;;;4995093;28;20036;-70
2023/09/02 14:24:09;;;;;;;4.80;2.10;;;;;;;;;;5030710;28;20022;-70
2023/09/02 14:27:21;;;;;;;4.00;1.73;;;;;;;;;;5007599;28;20030;-69
2023/09/02 14:30:06;;;;;;;3.80;2.15;;;;;;;;;;5011270;28;20037;-69
2023/09/02 14:32:51;;;;;;;2.33;1.63;;;;;;;;;;4992607;28;20239;-74
2023/09/02 14:35:37;;;;;;;2.33;1.50;;;;;;;;;;5006956;28;20034;-69
2023/09/02 14:38:22;;;;;;;3.35;1.50;;;;;;;;;;5007949;28;20030;-67
2023/09/02 14:41:07;;;;;;;4.93;2.00;;;;;;;;;;5006428;28;20473;-68
2023/09/02 14:43:52;;;;;;;3.05;1.77;;;;;;;;;;4990464;28;20044;-69
2023/09/02 14:46:37;;;;;;;5.95;2.17;;;;;;;;;;5022738;28;20025;-67
2023/09/02 14:49:23;;;;;;;3.00;1.70;;;;;;;;;;5017764;28;20053;-67
2023/09/02 14:52:08;;;;;;;4.20;1.80;;;;;;;;;;5003020;28;20022;-68
2023/09/02 14:54:54;;;;;;;4.78;2.45;;;;;;;;;;5015215;28;20050;-74
2023/09/02 14:57:39;;;;;;;3.88;2.13;;;;;;;;;;5004790;28;20797;-73
2023/09/02 15:00:25;;;;;;;2.40;1.88;;;;;;;;;;5031901;28;20500;-74
2023/09/02 15:03:22;;;;;;;6.82;2.15;;;;;;;;;;5002794;28;20049;-73
2023/09/02 15:06:08;;;;;;;3.65;1.55;;;;;;;;;;5017234;28;20060;-75
2023/09/02 15:08:53;;;;;;;5.70;2.58;;;;;;;;;;4989544;28;20641;-70
2023/09/02 15:11:39;;;;;;;3.47;2.40;;;;;;;;;;5011644;28;20038;-74
2023/09/02 15:14:25;;;;;;;3.72;2.33;;;;;;;;;;5035494;28;20591;-75
2023/09/02 15:17:10;;;;;;;2.42;1.67;;;;;;;;;;5006273;28;20045;-73
2023/09/02 15:19:57;;;;;;;3.05;1.95;;;;;;;;;;5032223;28;20102;-73
2023/09/02 15:22:42;;;;;;;3.78;2.53;;;;;;;;;;5011675;28;20567;-72
2023/09/02 15:25:27;;;;;;;3.67;2.15;;;;;;;;;;5022652;28;20041;-74
2023/09/02 15:28:13;;;;;;;3.78;2.28;;;;;;;;;;5025120;28;20045;-71
2023/09/02 15:31:01;;;;;;;2.70;1.90;;;;;;;;;;5006389;28;20125;-75
2023/09/02 15:33:46;;;;;;;3.17;1.95;;;;;;;;;;5018605;28;20109;-72
2023/09/02 15:36:32;;;;;;;4.85;2.47;;;;;;;;;;5035076;28;20077;-72
2023/09/02 15:39:25;;;;;;;4.30;1.63;;;;;;;;;;5035128;28;20030;-68
2023/09/02 15:42:10;;;;;;;3.25;2.08;;;;;;;;;;5012073;28;20304;-68
2023/09/02 15:44:55;;;;;;;3.70;2.05;;;;;;;;;;5000989;28;20027;-76
2023/09/02 15:47:40;;;;;;;2.88;1.83;;;;;;;;;;5017926;28;20485;-70
2023/09/02 15:50:26;;;;;;;4.38;2.45;;;;;;;;;;5007048;28;20462;-66
2023/09/02 15:53:12;;;;;;;2.92;1.83;;;;;;;;;;5001598;28;20476;-66
2023/09/02 15:55:57;;;;;;;5.43;2.00;;;;;;;;;;5003540;28;20121;-63
2023/09/02 15:58:44;;;;;;;5.20;2.35;;;;;;;;;;5002375;28;20046;-66
2023/09/02 16:01:29;;;;;;;5.35;2.65;;;;;;;;;;5031730;28;20111;-64
2023/09/02 16:04:15;;;;;;;2.55;2.00;;;;;;;;;;5000155;28;20030;-69
2023/09/02 16:07:00;;;;;;;3.60;2.13;;;;;;;;;;5019632;28;20048;-83
2023/09/02 16:09:46;;;;;;;5.25;1.85;;;;;;;;;;5016477;28;20041;-82
2023/09/02 16:12:31;;;;;;;5.05;2.25;;;;;;;;;;5005802;28;20040;-85
2023/09/02 16:15:21;;;;;;;3.30;1.67;;;;;;;;;;5010406;28;20046;-84
2023/09/02 16:18:06;;;;;;;4.18;2.65;;;;;;;;;;5002216;28;20482;-80
2023/09/02 16:20:52;;;;;;;4.63;2.28;;;;;;;;;;5003627;28;20027;-80
2023/09/02 16:23:37;;;;;;;3.92;1.92;;;;;;;;;;5008976;28;20112;-79
2023/09/02 16:26:22;;;;;;;4.05;1.95;;;;;;;;;;4992477;28;20036;-70
2023/09/02 16:29:08;;;;;;;2.67;2.03;;;;;;;;;;5003327;28;20053;-69
2023/09/02 16:31:53;;;;;;;5.18;2.38;;;;;;;;;;4997323;28;20750;-70
2023/09/02 16:34:42;;;;;;;7.45;2.60;;;;;;;;;;5016566;28;20033;-69
2023/09/02 16:37:28;;;;;;;4.35;1.92;;;;;;;;;;4994808;28;20049;-70